Balikesir, Turkey
Current Conditions -  °F | °C
As of 4:50 AM on Friday 21 Nov 2014 (Local Time) from LTBF Reporting Station
Scattered Clouds Scattered Clouds  
Wind Chill: 46°   Ceiling: Unl
Heat Index: 46°   Visibility: 6mi
Dew Point: 43°   Wind: 1mph
Humidity: 87%   Direction: 140°SE
Pressure: 30.06"   Gusts: NA
Location:  39.65°N, 27.88°E
Report Text: LTBF 210150Z 14001KT 9999 FEW020 SCT035 08/06 Q1018 NOSIG
Loading
Personal Weather Stations






























Interactive Weather Map New forecast layout! Learn more

10-Day Weather Forecast

Advertisements
Track Severe Weather on mobile